createdAt,value
2018-07-09T00:01:31.252Z,19.02
2018-07-09T00:03:59.923Z,18.98
2018-07-09T00:06:28.912Z,18.93
2018-07-09T00:08:57.357Z,18.87
2018-07-09T00:11:27.544Z,18.85
2018-07-09T00:13:56.577Z,18.78
2018-07-09T00:16:25.431Z,18.69
2018-07-09T00:18:53.911Z,18.63
2018-07-09T00:21:22.791Z,18.59
2018-07-09T00:23:51.223Z,18.59
2018-07-09T00:26:20.263Z,18.46
2018-07-09T00:28:48.976Z,18.49
2018-07-09T00:31:17.457Z,18.55
2018-07-09T00:33:45.935Z,18.51
2018-07-09T00:36:15.053Z,18.55
2018-07-09T00:38:45.007Z,18.57
2018-07-09T00:41:14.820Z,18.53
2018-07-09T00:43:44.081Z,18.48
2018-07-09T00:46:12.972Z,18.47
2018-07-09T00:48:41.460Z,18.43
2018-07-09T00:51:09.886Z,18.39
2018-07-09T00:53:38.329Z,18.33
2018-07-09T00:56:07.407Z,18.29
2018-07-09T00:58:36.701Z,18.29
2018-07-09T01:01:05.554Z,18.30
2018-07-09T01:03:34.496Z,18.22
2018-07-09T01:06:03.863Z,18.16
2018-07-09T01:08:33.204Z,18.12
2018-07-09T01:11:12.784Z,18.09
2018-07-09T01:13:47.351Z,18.00
2018-07-09T01:16:16.204Z,17.98
2018-07-09T01:18:44.656Z,17.86
2018-07-09T01:21:14.396Z,17.82
2018-07-09T01:23:43.990Z,17.79
2018-07-09T01:26:13.532Z,17.71
2018-07-09T01:28:43.002Z,17.64
2018-07-09T01:31:12.051Z,17.60
2018-07-09T01:33:42.348Z,17.57
2018-07-09T01:36:11.348Z,17.55
2018-07-09T01:38:39.740Z,17.49
2018-07-09T01:41:08.149Z,17.43
2018-07-09T01:43:37.522Z,17.40
2018-07-09T01:46:06.673Z,17.45
2018-07-09T01:48:35.989Z,17.45
2018-07-09T01:51:04.542Z,17.38
2018-07-09T01:53:33.281Z,17.35
2018-07-09T01:56:01.713Z,17.35
2018-07-09T01:58:30.135Z,17.33
2018-07-09T02:00:58.823Z,17.28
2018-07-09T02:03:27.532Z,17.27
2018-07-09T02:05:56.040Z,17.25
2018-07-09T02:08:25.393Z,17.22
2018-07-09T02:10:53.832Z,17.18
2018-07-09T02:13:22.256Z,17.16
2018-07-09T02:15:50.663Z,17.14
2018-07-09T02:18:19.139Z,17.11
2018-07-09T02:20:48.384Z,17.02
2018-07-09T02:23:16.879Z,16.92
2018-07-09T02:25:45.576Z,16.82
2018-07-09T02:28:13.947Z,16.82
2018-07-09T02:30:43.003Z,16.83
2018-07-09T02:33:11.653Z,16.88
2018-07-09T02:35:40.100Z,16.73
2018-07-09T02:38:09.483Z,16.74
2018-07-09T02:40:37.917Z,16.67
2018-07-09T02:43:06.358Z,16.67
2018-07-09T02:45:35.047Z,16.67
2018-07-09T02:48:04.149Z,16.61
2018-07-09T02:50:32.640Z,16.64
2018-07-09T02:53:01.117Z,16.60
2018-07-09T02:55:29.673Z,16.59
2018-07-09T02:57:58.948Z,16.59
2018-07-09T03:00:29.409Z,16.57
2018-07-09T03:02:58.593Z,16.58
2018-07-09T03:05:27.008Z,16.57
2018-07-09T03:07:55.505Z,16.53
2018-07-09T03:10:24.946Z,16.54
2018-07-09T03:12:53.473Z,16.57
2018-07-09T03:15:21.883Z,16.51
2018-07-09T03:17:51.614Z,16.51
2018-07-09T03:20:20.155Z,16.50
2018-07-09T03:22:48.565Z,16.36
2018-07-09T03:25:16.992Z,16.32
2018-07-09T03:27:45.452Z,16.28
2018-07-09T03:30:14.080Z,16.22
2018-07-09T03:32:43.096Z,16.08
2018-07-09T03:35:12.507Z,16.04
2018-07-09T03:37:40.919Z,16.10
2018-07-09T03:40:09.299Z,16.02
2018-07-09T03:42:37.793Z,15.85
2018-07-09T03:45:06.329Z,15.84
2018-07-09T03:47:35.864Z,15.85
2018-07-09T03:50:04.429Z,15.86
2018-07-09T03:52:33.242Z,15.79
2018-07-09T03:55:02.253Z,15.75
2018-07-09T03:57:30.723Z,15.67
2018-07-09T03:59:59.162Z,15.62
2018-07-09T04:02:27.572Z,15.73
2018-07-09T04:04:55.949Z,15.76
2018-07-09T04:07:24.312Z,15.71
2018-07-09T04:09:53.010Z,15.64
2018-07-09T04:12:21.571Z,15.67
2018-07-09T04:14:49.964Z,15.72
2018-07-09T04:17:18.504Z,15.80
2018-07-09T04:19:46.940Z,15.79
2018-07-09T04:22:15.940Z,15.80
2018-07-09T04:24:44.361Z,15.82
2018-07-09T04:27:12.755Z,15.87
2018-07-09T04:29:41.331Z,15.87
2018-07-09T04:32:09.842Z,15.87
2018-07-09T04:34:38.928Z,15.88
2018-07-09T04:37:07.351Z,15.89
2018-07-09T04:39:35.896Z,15.86
2018-07-09T04:42:04.327Z,15.91
2018-07-09T04:44:33.775Z,15.98
2018-07-09T04:47:02.268Z,15.95
2018-07-09T04:49:31.332Z,15.97
2018-07-09T04:51:59.697Z,16.04
2018-07-09T04:54:28.177Z,16.11
2018-07-09T04:56:57.175Z,16.16
2018-07-09T04:59:25.673Z,16.18
2018-07-09T05:01:54.044Z,16.25
2018-07-09T05:04:22.492Z,16.19
2018-07-09T05:06:51.856Z,16.12
2018-07-09T05:09:20.284Z,16.08
2018-07-09T05:11:48.692Z,16.13
2018-07-09T05:14:17.103Z,16.13
2018-07-09T05:16:45.527Z,16.12
2018-07-09T05:19:13.978Z,16.20
2018-07-09T05:21:42.408Z,16.25
2018-07-09T05:24:10.904Z,16.29
2018-07-09T05:26:39.381Z,16.37
2018-07-09T05:29:07.780Z,16.43
2018-07-09T05:31:36.463Z,16.39
2018-07-09T05:34:04.834Z,16.37
2018-07-09T05:36:33.261Z,16.39
2018-07-09T05:39:01.796Z,16.41
2018-07-09T05:41:30.242Z,16.42
2018-07-09T05:43:58.968Z,16.45
2018-07-09T05:46:27.440Z,16.48
2018-07-09T05:48:55.950Z,16.58
2018-07-09T05:51:24.379Z,16.62
2018-07-09T05:53:52.772Z,16.60
2018-07-09T05:56:21.212Z,16.64
2018-07-09T05:58:50.119Z,16.72
2018-07-09T06:01:18.497Z,16.80
2018-07-09T06:03:46.996Z,16.77
2018-07-09T06:06:15.460Z,16.79
2018-07-09T06:08:43.888Z,16.77
2018-07-09T06:11:12.341Z,16.73
2018-07-09T06:13:40.735Z,16.72
2018-07-09T06:16:09.880Z,16.63
2018-07-09T06:18:38.422Z,16.74
2018-07-09T06:21:07.049Z,16.20
2018-07-09T06:23:35.540Z,16.83
2018-07-09T06:26:04.032Z,16.92
2018-07-09T06:28:32.487Z,16.78
2018-07-09T06:31:00.904Z,16.95
2018-07-09T06:33:29.445Z,16.95
2018-07-09T06:35:57.896Z,16.96
2018-07-09T06:38:26.256Z,16.95
2018-07-09T06:40:54.704Z,17.02
2018-07-09T06:43:23.139Z,17.07
2018-07-09T06:45:51.610Z,17.07
2018-07-09T06:48:20.153Z,17.04
2018-07-09T06:50:48.539Z,17.03
2018-07-09T06:53:17.034Z,17.03
2018-07-09T06:55:45.432Z,17.09
2018-07-09T06:58:13.877Z,17.20
2018-07-09T07:00:44.267Z,17.26
2018-07-09T07:03:12.793Z,17.33
2018-07-09T07:05:41.399Z,17.35
2018-07-09T07:08:09.816Z,17.30
2018-07-09T07:10:38.278Z,17.32
2018-07-09T07:13:07.472Z,17.40
2018-07-09T07:15:36.003Z,17.43
2018-07-09T07:18:04.478Z,17.48
2018-07-09T07:20:34.054Z,17.50
2018-07-09T07:23:03.156Z,17.51
2018-07-09T07:25:31.605Z,17.56
2018-07-09T07:28:00.129Z,17.63
2018-07-09T07:30:28.618Z,17.69
2018-07-09T07:32:57.044Z,17.64
2018-07-09T07:35:25.519Z,17.69
2018-07-09T07:37:53.974Z,17.74
2018-07-09T07:40:22.520Z,17.81
2018-07-09T07:42:50.964Z,17.91
2018-07-09T07:45:19.424Z,17.99
2018-07-09T07:47:47.911Z,18.03
2018-07-09T07:50:16.434Z,18.02
2018-07-09T07:52:44.841Z,18.04
2018-07-09T07:55:13.268Z,18.03
2018-07-09T07:57:41.795Z,18.09
2018-07-09T08:00:11.291Z,18.10
2018-07-09T08:02:40.322Z,18.13
2018-07-09T08:05:08.853Z,18.18
2018-07-09T08:07:37.428Z,18.22
2018-07-09T08:10:06.836Z,18.24
2018-07-09T08:15:04.054Z,18.34
2018-07-09T08:17:32.690Z,18.37
2018-07-09T08:20:01.167Z,18.41
2018-07-09T08:22:29.582Z,18.49
2018-07-09T08:24:58.111Z,18.57
2018-07-09T08:27:26.495Z,18.53
2018-07-09T08:29:54.937Z,18.51
2018-07-09T08:32:23.625Z,18.57
2018-07-09T08:34:52.250Z,18.59
2018-07-09T08:37:20.745Z,18.56
2018-07-09T08:39:49.177Z,18.58
2018-07-09T08:42:17.639Z,18.61
2018-07-09T08:44:46.787Z,18.62
2018-07-09T08:47:15.262Z,18.74
2018-07-09T08:49:43.933Z,18.72
2018-07-09T08:52:12.399Z,18.72
2018-07-09T08:54:40.846Z,18.74
2018-07-09T08:57:09.372Z,18.72
2018-07-09T08:59:37.845Z,18.74
2018-07-09T09:02:06.268Z,18.88
2018-07-09T09:04:34.703Z,18.91
2018-07-09T09:07:03.142Z,18.89
2018-07-09T09:09:31.613Z,18.94
2018-07-09T09:12:00.100Z,19.02
2018-07-09T09:14:28.545Z,19.17
2018-07-09T09:16:57.002Z,19.32
2018-07-09T09:19:25.408Z,19.44
2018-07-09T09:21:53.861Z,19.57
2018-07-09T09:24:22.282Z,19.68
2018-07-09T09:26:51.152Z,19.76
2018-07-09T09:29:19.731Z,19.87
2018-07-09T09:31:48.268Z,19.99
2018-07-09T09:34:16.773Z,20.04
2018-07-09T09:36:46.819Z,20.08
2018-07-09T09:39:15.364Z,20.07
2018-07-09T09:41:44.476Z,20.04
2018-07-09T09:44:12.918Z,20.00
2018-07-09T09:46:41.452Z,20.06
2018-07-09T09:49:09.907Z,20.04
2018-07-09T09:51:38.336Z,19.99
2018-07-09T09:54:07.001Z,19.98
2018-07-09T09:56:35.377Z,19.86
2018-07-09T09:59:03.930Z,19.78
2018-07-09T10:01:32.424Z,19.73
2018-07-09T10:04:00.860Z,19.84
2018-07-09T10:06:29.305Z,19.94
2018-07-09T10:08:58.057Z,20.04
2018-07-09T10:11:26.512Z,20.00
2018-07-09T10:13:54.960Z,20.03
2018-07-09T10:16:23.414Z,19.95
2018-07-09T10:18:51.991Z,19.92
2018-07-09T10:21:20.405Z,20.02
2018-07-09T10:23:48.828Z,20.14
2018-07-09T10:26:17.328Z,20.36
2018-07-09T10:28:46.057Z,20.42
2018-07-09T10:31:14.470Z,20.50
2018-07-09T10:33:42.975Z,20.42
2018-07-09T10:36:11.381Z,20.45
2018-07-09T10:38:39.849Z,20.40
2018-07-09T10:41:08.353Z,20.38
2018-07-09T10:43:36.821Z,20.54
2018-07-09T10:46:05.302Z,20.66
2018-07-09T10:48:33.769Z,20.83
2018-07-09T10:51:02.230Z,21.02
2018-07-09T10:53:30.652Z,21.26
2018-07-09T10:55:59.137Z,21.38
2018-07-09T10:58:27.580Z,21.40
2018-07-09T11:00:56.030Z,21.39
2018-07-09T11:03:24.583Z,21.43
2018-07-09T11:05:53.009Z,21.46
2018-07-09T11:08:21.494Z,21.48
2018-07-09T11:10:49.921Z,21.36
2018-07-09T11:13:18.432Z,21.29
2018-07-09T11:15:46.952Z,21.25
2018-07-09T11:18:15.474Z,21.30
2018-07-09T11:20:43.964Z,21.33
2018-07-09T11:23:12.478Z,21.31
2018-07-09T11:25:40.929Z,21.28
2018-07-09T11:28:09.412Z,21.32
2018-07-09T11:30:38.452Z,21.40
2018-07-09T11:33:06.889Z,21.43
2018-07-09T11:35:35.316Z,21.48
2018-07-09T11:38:03.764Z,21.55
2018-07-09T11:40:32.175Z,21.58
2018-07-09T11:43:00.645Z,21.67
2018-07-09T11:45:29.096Z,21.81
2018-07-09T11:47:57.605Z,22.09
2018-07-09T11:50:26.072Z,22.24
2018-07-09T11:52:54.639Z,22.13
2018-07-09T11:55:23.056Z,22.01
2018-07-09T11:57:52.094Z,21.91
2018-07-09T12:00:20.512Z,21.86
2018-07-09T12:02:49.351Z,21.89
2018-07-09T12:05:17.809Z,21.94
2018-07-09T12:07:46.309Z,22.46
2018-07-09T12:10:14.855Z,22.78
2018-07-09T12:12:43.276Z,23.10
2018-07-09T12:15:11.764Z,22.83
2018-07-09T12:17:40.396Z,22.88
2018-07-09T12:20:08.978Z,23.81
2018-07-09T12:22:37.373Z,24.38
2018-07-09T12:25:06.345Z,24.70
2018-07-09T12:27:34.776Z,24.66
2018-07-09T12:30:03.295Z,24.47
2018-07-09T12:32:31.698Z,23.96
2018-07-09T12:35:00.121Z,24.28
2018-07-09T12:37:29.250Z,24.00
2018-07-09T12:39:57.905Z,23.78
2018-07-09T12:42:27.301Z,24.58
2018-07-09T12:44:55.740Z,24.92
2018-07-09T12:47:24.179Z,24.14
2018-07-09T12:49:53.423Z,23.44
2018-07-09T12:52:21.865Z,23.16
2018-07-09T12:54:50.349Z,22.92
2018-07-09T12:57:18.875Z,22.72
2018-07-09T12:59:47.306Z,22.59
2018-07-09T13:02:16.188Z,22.50
2018-07-09T13:04:44.837Z,22.42
2018-07-09T13:07:14.938Z,22.33
2018-07-09T13:09:43.345Z,22.32
2018-07-09T13:12:11.836Z,22.25
2018-07-09T13:14:40.292Z,22.22
2018-07-09T13:17:08.742Z,22.15
2018-07-09T13:19:37.157Z,22.22
2018-07-09T13:22:05.812Z,22.26
2018-07-09T13:24:34.313Z,22.29
2018-07-09T13:27:02.717Z,22.37
2018-07-09T13:29:31.172Z,22.40
2018-07-09T13:32:00.269Z,22.53
2018-07-09T13:34:28.776Z,22.70
2018-07-09T13:36:57.268Z,22.74
2018-07-09T13:39:25.823Z,22.78
2018-07-09T13:41:54.327Z,22.78
2018-07-09T13:44:22.752Z,22.98
2018-07-09T13:46:51.312Z,23.13
2018-07-09T13:49:19.745Z,23.32
2018-07-09T13:51:48.216Z,23.42
2018-07-09T13:54:16.628Z,23.44
2018-07-09T13:56:45.978Z,23.88
2018-07-09T13:59:15.587Z,23.88
2018-07-09T14:01:44.076Z,23.87
2018-07-09T14:04:12.564Z,23.74
2018-07-09T14:06:41.056Z,23.87
2018-07-09T14:09:09.920Z,24.10
2018-07-09T14:11:38.435Z,24.09
2018-07-09T14:14:07.361Z,24.08
2018-07-09T14:16:35.801Z,23.96
2018-07-09T14:19:15.414Z,24.01
2018-07-09T14:21:43.810Z,23.75
2018-07-09T14:24:12.226Z,23.63
2018-07-09T14:26:40.635Z,23.55
2018-07-09T14:29:09.057Z,23.46
2018-07-09T14:31:37.457Z,23.28
2018-07-09T14:34:06.071Z,23.30
2018-07-09T14:36:34.506Z,23.24
2018-07-09T14:39:03.027Z,23.01
2018-07-09T14:41:32.412Z,22.88
2018-07-09T14:44:00.890Z,22.78
2018-07-09T14:46:29.319Z,22.73
2018-07-09T14:48:57.776Z,22.67
2018-07-09T14:51:26.206Z,22.67
2018-07-09T14:53:54.664Z,22.67
2018-07-09T14:56:23.120Z,22.71
2018-07-09T14:58:53.049Z,22.69
2018-07-09T15:01:21.584Z,22.67
2018-07-09T15:03:52.314Z,22.66
2018-07-09T15:06:20.868Z,22.59
2018-07-09T15:08:49.355Z,22.53
2018-07-09T15:11:17.816Z,22.49
2018-07-09T15:13:46.271Z,22.45
2018-07-09T15:16:14.690Z,22.45
2018-07-09T15:18:43.680Z,22.41
2018-07-09T15:21:12.265Z,22.39
2018-07-09T15:23:40.653Z,22.43
2018-07-09T15:26:09.106Z,22.42
2018-07-09T15:28:37.542Z,22.50
2018-07-09T15:31:06.053Z,22.61
2018-07-09T15:33:34.509Z,22.59
2018-07-09T15:36:03.012Z,22.58
2018-07-09T15:38:31.371Z,22.56
2018-07-09T15:41:00.110Z,22.51
2018-07-09T15:43:41.418Z,22.46
2018-07-09T15:46:11.212Z,22.45
2018-07-09T15:48:40.134Z,22.37
2018-07-09T15:51:09.020Z,22.34
2018-07-09T15:53:37.747Z,22.34
2018-07-09T15:56:06.473Z,22.30
2018-07-09T15:58:36.601Z,22.28
2018-07-09T16:01:05.548Z,22.23
2018-07-09T16:03:34.179Z,22.21
2018-07-09T16:06:02.636Z,22.19
2018-07-09T16:08:31.049Z,22.14
2018-07-09T16:10:59.601Z,22.08
2018-07-09T16:13:28.065Z,22.08
2018-07-09T16:15:56.468Z,22.04
2018-07-09T16:18:24.938Z,22.05
2018-07-09T16:20:53.712Z,22.00
2018-07-09T16:23:22.104Z,21.97
2018-07-09T16:25:50.649Z,21.93
2018-07-09T16:28:19.206Z,21.87
2018-07-09T16:30:47.730Z,21.92
2018-07-09T16:33:16.312Z,21.88
2018-07-09T16:35:44.751Z,21.88
2018-07-09T16:38:13.163Z,21.95
2018-07-09T16:40:41.614Z,22.03
2018-07-09T16:43:10.381Z,22.10
2018-07-09T16:45:38.800Z,22.06
2018-07-09T16:48:07.286Z,22.09
2018-07-09T16:50:35.740Z,22.11
2018-07-09T16:53:04.187Z,22.09
2018-07-09T16:55:32.617Z,22.09
2018-07-09T16:58:01.033Z,22.09
2018-07-09T17:00:29.512Z,22.00
2018-07-09T17:02:59.151Z,22.00
2018-07-09T17:05:27.594Z,22.00
2018-07-09T17:07:56.215Z,21.99
2018-07-09T17:10:24.652Z,21.99
2018-07-09T17:12:53.629Z,21.96
2018-07-09T17:15:22.180Z,21.98
2018-07-09T17:17:50.673Z,21.92
2018-07-09T17:20:19.115Z,21.88
2018-07-09T17:22:48.240Z,21.91
2018-07-09T17:25:16.896Z,21.96
2018-07-09T17:27:45.340Z,22.04
2018-07-09T17:30:13.754Z,22.04
2018-07-09T17:32:42.212Z,22.03
2018-07-09T17:35:10.593Z,22.03
2018-07-09T17:37:39.111Z,22.04
2018-07-09T17:40:07.841Z,22.01
2018-07-09T17:42:36.367Z,22.00
2018-07-09T17:45:04.975Z,21.93
2018-07-09T17:47:33.435Z,21.91
2018-07-09T17:50:01.918Z,21.86
2018-07-09T17:52:30.309Z,21.78
2018-07-09T17:54:58.742Z,21.75
2018-07-09T17:57:27.237Z,21.71
2018-07-09T17:59:55.734Z,21.71
2018-07-09T18:02:24.217Z,21.67
2018-07-09T18:04:52.669Z,21.68
2018-07-09T18:07:22.824Z,21.63
2018-07-09T18:09:51.313Z,21.53
2018-07-09T18:12:19.740Z,21.52
2018-07-09T18:14:48.171Z,21.49
2018-07-09T18:17:16.972Z,21.47
2018-07-09T18:19:45.492Z,21.43
2018-07-09T18:22:13.922Z,21.37
2018-07-09T18:24:42.332Z,21.38
2018-07-09T18:27:10.823Z,21.35
2018-07-09T18:29:39.265Z,21.35
2018-07-09T18:32:07.769Z,21.32
2018-07-09T18:34:36.756Z,21.30
2018-07-09T18:37:05.313Z,21.28
2018-07-09T18:39:33.704Z,21.31
2018-07-09T18:42:03.922Z,21.27
2018-07-09T18:44:32.395Z,21.22
2018-07-09T18:47:02.384Z,21.25
2018-07-09T18:49:31.638Z,21.21
2018-07-09T18:52:00.133Z,21.14
2018-07-09T18:54:28.806Z,21.06
2018-07-09T18:56:58.196Z,20.96
2018-07-09T18:59:26.671Z,20.90
2018-07-09T19:01:55.512Z,20.89
2018-07-09T19:04:24.515Z,20.86
2018-07-09T19:06:58.938Z,20.87
2018-07-09T19:09:28.217Z,20.81
2018-07-09T19:11:57.572Z,20.78
2018-07-09T19:14:45.564Z,20.79
2018-07-09T19:18:09.085Z,20.73
2018-07-09T19:21:18.734Z,20.67
2018-07-09T19:23:46.293Z,20.60
2018-07-09T19:26:13.544Z,20.61
2018-07-09T19:28:40.892Z,20.60
2018-07-09T19:31:08.079Z,20.58
2018-07-09T19:33:35.316Z,20.50
2018-07-09T19:36:03.523Z,20.50
2018-07-09T19:38:30.736Z,20.44
2018-07-09T19:40:58.055Z,20.38
2018-07-09T19:43:25.265Z,20.32
2018-07-09T19:45:52.616Z,20.32
2018-07-09T19:48:19.808Z,20.32
2018-07-09T19:50:47.559Z,20.29
2018-07-09T19:53:16.781Z,20.22
2018-07-09T19:55:44.173Z,20.19
2018-07-09T19:58:11.495Z,20.19
2018-07-09T20:00:40.466Z,20.12
2018-07-09T20:03:08.270Z,20.07
2018-07-09T20:05:36.142Z,20.08
2018-07-09T20:08:04.088Z,20.04
2018-07-09T20:10:36.668Z,19.95
2018-07-09T20:15:11.160Z,19.79
2018-07-09T20:17:42.605Z,19.74
2018-07-09T20:20:09.927Z,19.77
2018-07-09T20:22:37.300Z,19.71
2018-07-09T20:25:04.975Z,19.73
2018-07-09T20:27:32.371Z,19.76
2018-07-09T20:30:00.733Z,19.77
2018-07-09T20:32:28.177Z,19.73
2018-07-09T20:34:55.440Z,19.77
2018-07-09T20:37:22.852Z,19.72
2018-07-09T20:39:50.156Z,19.64
2018-07-09T20:42:17.565Z,19.41
2018-07-09T20:44:44.810Z,19.24
2018-07-09T20:47:12.209Z,19.10
2018-07-09T20:49:39.565Z,19.06
2018-07-09T20:52:06.789Z,19.02
2018-07-09T20:54:33.991Z,19.02
2018-07-09T20:57:01.337Z,19.07
2018-07-09T20:59:28.563Z,18.99
2018-07-09T21:01:55.802Z,18.90
2018-07-09T21:04:28.941Z,18.70
2018-07-09T21:06:58.312Z,18.75
2018-07-09T21:09:26.135Z,18.70
2018-07-09T21:11:53.658Z,18.79
2018-07-09T21:14:20.860Z,18.69
2018-07-09T21:16:48.061Z,18.65
2018-07-09T21:19:15.288Z,18.62
2018-07-09T21:21:42.502Z,18.60
2018-07-09T21:24:09.709Z,18.49
2018-07-09T21:26:36.954Z,18.50
2018-07-09T21:29:04.220Z,18.41
2018-07-09T21:31:31.476Z,18.31
2018-07-09T21:33:58.679Z,18.38
2018-07-09T21:36:25.933Z,18.37
2018-07-09T21:38:53.148Z,18.34
2018-07-09T21:41:20.361Z,18.31
2018-07-09T21:43:47.572Z,18.32
2018-07-09T21:46:14.812Z,18.27
2018-07-09T21:48:42.161Z,18.14
2018-07-09T21:51:09.443Z,18.14
2018-07-09T21:53:37.020Z,18.11
2018-07-09T21:56:04.208Z,18.14
2018-07-09T21:58:31.404Z,18.06
2018-07-09T22:00:58.661Z,18.09
2018-07-09T22:03:25.842Z,18.07
2018-07-09T22:05:53.050Z,17.94
2018-07-09T22:08:20.253Z,17.88
2018-07-09T22:10:47.452Z,17.90
2018-07-09T22:13:14.681Z,17.93
2018-07-09T22:15:43.182Z,17.99
2018-07-09T22:18:10.691Z,18.01
2018-07-09T22:20:38.162Z,17.88
2018-07-09T22:23:05.474Z,17.92
2018-07-09T22:25:32.673Z,17.96
2018-07-09T22:28:00.032Z,17.95
2018-07-09T22:30:31.780Z,17.82
2018-07-09T22:33:00.568Z,17.69
2018-07-09T22:35:29.856Z,17.56
2018-07-09T22:37:58.383Z,17.52
2018-07-09T22:40:26.866Z,17.59
2018-07-09T22:42:55.902Z,17.63
2018-07-09T22:45:24.973Z,17.54
2018-07-09T22:47:53.472Z,17.50
2018-07-09T22:50:23.921Z,17.47
2018-07-09T22:52:52.460Z,17.36
2018-07-09T22:55:32.269Z,17.23
2018-07-09T22:58:01.988Z,17.25
2018-07-09T23:00:30.556Z,17.26
2018-07-09T23:03:13.257Z,17.30
2018-07-09T23:05:41.785Z,17.27
2018-07-09T23:08:11.340Z,17.32
2018-07-09T23:11:51.437Z,17.24
2018-07-09T23:14:59.651Z,17.34
2018-07-09T23:17:39.359Z,17.28
2018-07-09T23:22:23.567Z,17.28
2018-07-09T23:24:50.921Z,17.18
2018-07-09T23:27:18.123Z,17.20
2018-07-09T23:29:45.361Z,17.19
2018-07-09T23:32:13.434Z,17.19
2018-07-09T23:34:40.649Z,17.27
2018-07-09T23:37:07.880Z,17.20
2018-07-09T23:39:35.135Z,17.19
2018-07-09T23:42:03.047Z,17.19
2018-07-09T23:44:30.152Z,17.17
2018-07-09T23:46:57.359Z,17.19
2018-07-09T23:49:24.563Z,17.25
2018-07-09T23:51:51.825Z,17.05
2018-07-09T23:54:19.017Z,17.16
2018-07-09T23:57:10.643Z,17.21
2018-07-09T23:59:51.105Z,17.30
